Time;durP1;ratioP1;P1;durP2;ratioP2;P2;SDS_P1;SDS_P2;PMS_P1;PMS_P2;Temp;Humidity;BMP_temperature;BMP_pressure;BME280_temperature;BME280_humidity;BME280_pressure;Samples;Min_cycle;Max_cycle;Signal;HPM_P1;HPM_P2
2023/09/20 00:00:27;;;;;;;4.80;2.70;;;13.40;48.40;;;;;;5111781;27;46714;-82
2023/09/20 00:02:53;;;;;;;5.27;2.60;;;13.40;48.50;;;;;;5109551;27;47544;-80
2023/09/20 00:05:21;;;;;;;3.77;2.43;;;13.50;48.70;;;;;;5110170;27;46762;-81
2023/09/20 00:07:48;;;;;;;5.57;3.17;;;13.40;48.80;;;;;;5091831;27;46705;-81
2023/09/20 00:10:14;;;;;;;10.23;3.40;;;13.40;48.90;;;;;;5108185;27;46837;-79
2023/09/20 00:12:44;;;;;;;6.77;3.13;;;13.40;49.20;;;;;;5109916;27;46443;-83
2023/09/20 00:15:10;;;;;;;4.60;3.00;;;13.30;49.20;;;;;;5108788;27;46375;-80
2023/09/20 00:17:36;;;;;;;6.80;3.03;;;13.30;49.40;;;;;;5108822;27;46742;-79
2023/09/20 00:20:11;;;;;;;4.53;2.90;;;13.40;49.80;;;;;;5107777;27;46776;-79
2023/09/20 00:22:41;;;;;;;5.63;2.83;;;13.30;49.90;;;;;;5106777;27;46729;-79
2023/09/20 00:25:11;;;;;;;5.90;2.83;;;13.30;50.00;;;;;;5088874;27;46722;-82
2023/09/20 00:27:41;;;;;;;5.33;2.57;;;13.30;50.10;;;;;;5109070;27;46805;-80
2023/09/20 00:30:14;;;;;;;6.63;2.43;;;13.30;50.40;;;;;;5107153;27;46683;-78
2023/09/20 00:32:43;;;;;;;5.50;3.03;;;13.30;50.50;;;;;;5107286;27;46743;-81
2023/09/20 00:35:10;;;;;;;7.03;2.77;;;13.30;50.70;;;;;;5107440;27;46502;-79
2023/09/20 00:37:37;;;;;;;3.63;2.30;;;13.30;50.90;;;;;;5090405;27;46457;-79
2023/09/20 00:40:03;;;;;;;4.73;2.60;;;13.30;51.00;;;;;;5078692;27;46521;-80
2023/09/20 00:42:31;;;;;;;4.50;2.60;;;13.20;51.10;;;;;;5101682;27;47291;-79
2023/09/20 00:45:02;;;;;;;5.33;2.67;;;13.20;51.30;;;;;;5109004;27;46497;-79
2023/09/20 00:47:27;;;;;;;4.37;2.57;;;13.20;51.20;;;;;;5095060;27;46430;-78
2023/09/20 00:49:53;;;;;;;4.13;2.53;;;13.30;51.20;;;;;;5108262;27;46520;-80
2023/09/20 00:52:19;;;;;;;5.77;2.80;;;13.30;51.10;;;;;;5095241;27;48127;-80
2023/09/20 00:54:44;;;;;;;5.00;2.80;;;13.40;50.90;;;;;;5107594;27;46514;-78
2023/09/20 00:57:11;;;;;;;6.57;2.70;;;13.60;50.80;;;;;;5106279;27;46473;-77
2023/09/20 00:59:39;;;;;;;4.07;2.57;;;13.60;50.50;;;;;;5108858;27;46449;-79
2023/09/20 01:02:06;;;;;;;4.90;2.40;;;13.80;50.10;;;;;;5087321;27;48954;-80
2023/09/20 01:04:33;;;;;;;4.53;2.80;;;13.80;49.80;;;;;;5105096;27;46455;-75
2023/09/20 01:06:59;;;;;;;3.70;2.30;;;13.80;49.60;;;;;;5105013;27;46911;-79
2023/09/20 01:09:25;;;;;;;3.90;2.37;;;13.80;49.80;;;;;;5105714;27;47063;-80
2023/09/20 01:11:51;;;;;;;4.03;2.50;;;13.80;50.10;;;;;;5106368;27;46501;-79
2023/09/20 01:14:17;;;;;;;3.13;1.90;;;13.80;50.40;;;;;;5109493;27;46713;-79
2023/09/20 01:16:42;;;;;;;5.73;2.90;;;13.70;51.60;;;;;;5108982;27;46548;-79
2023/09/20 01:19:08;;;;;;;4.40;2.50;;;13.70;50.60;;;;;;5112116;27;46524;-80
2023/09/20 01:21:43;;;;;;;4.93;2.63;;;13.80;50.90;;;;;;5091079;27;48681;-80
2023/09/20 01:24:12;;;;;;;6.60;2.60;;;13.70;51.10;;;;;;5099952;27;46910;-78
2023/09/20 01:26:41;;;;;;;5.43;2.63;;;13.70;51.30;;;;;;5108916;27;46478;-78
2023/09/20 01:29:07;;;;;;;4.00;2.47;;;13.60;51.50;;;;;;5110727;27;46437;-78
2023/09/20 01:31:33;;;;;;;5.63;2.70;;;13.60;51.80;;;;;;5113222;27;46519;-79
2023/09/20 01:33:59;;;;;;;6.63;2.40;;;13.50;51.70;;;;;;5113222;27;46371;-80
2023/09/20 01:36:24;;;;;;;3.87;2.40;;;13.50;52.00;;;;;;5110770;27;46456;-79
2023/09/20 01:38:50;;;;;;;4.90;2.30;;;13.40;51.90;;;;;;5116400;27;46511;-79
2023/09/20 01:41:18;;;;;;;4.40;2.30;;;13.40;52.00;;;;;;5111963;27;47994;-78
2023/09/20 01:43:44;;;;;;;5.00;2.20;;;13.40;51.80;;;;;;5109025;27;46493;-79
2023/09/20 01:46:10;;;;;;;6.00;2.60;;;13.40;51.80;;;;;;5111517;27;46267;-79
2023/09/20 01:48:36;;;;;;;7.50;2.60;;;13.40;51.90;;;;;;5111081;27;46481;-79
2023/09/20 01:51:03;;;;;;;4.47;2.50;;;13.30;51.90;;;;;;5093644;27;49422;-79
2023/09/20 01:53:29;;;;;;;4.40;2.40;;;13.30;52.00;;;;;;5112624;27;46421;-79
2023/09/20 01:55:58;;;;;;;4.33;2.70;;;13.30;52.20;;;;;;5100733;27;46933;-80
2023/09/20 01:58:23;;;;;;;5.83;2.20;;;13.30;52.20;;;;;;5092933;27;46456;-81
2023/09/20 02:00:50;;;;;;;5.63;2.30;;;13.40;52.30;;;;;;5110809;27;45969;-79
2023/09/20 02:03:16;;;;;;;3.57;1.90;;;13.20;52.40;;;;;;5113402;27;46894;-82
2023/09/20 02:05:44;;;;;;;5.70;2.50;;;13.10;52.70;;;;;;5111508;27;46573;-82
2023/09/20 02:08:10;;;;;;;6.70;2.70;;;13.00;52.90;;;;;;5112269;27;46482;-81
2023/09/20 02:10:37;;;;;;;5.90;2.50;;;12.90;53.10;;;;;;5092728;27;48809;-83
2023/09/20 02:13:03;;;;;;;4.07;1.97;;;12.90;53.30;;;;;;5112723;27;46469;-82
2023/09/20 02:15:30;;;;;;;6.30;2.43;;;12.80;53.60;;;;;;5095055;27;46518;-81
2023/09/20 02:17:56;;;;;;;6.00;2.40;;;12.80;53.70;;;;;;5114818;27;46561;-83
2023/09/20 02:20:23;;;;;;;5.00;2.03;;;12.70;53.90;;;;;;5095096;27;49343;-81
2023/09/20 02:22:54;;;;;;;5.63;2.43;;;12.70;54.10;;;;;;5116709;27;46439;-83
2023/09/20 02:25:20;;;;;;;5.37;2.33;;;12.70;54.20;;;;;;5113668;27;46485;-80
2023/09/20 02:27:51;;;;;;;5.03;1.97;;;12.70;53.80;;;;;;5109322;27;46402;-79
2023/09/20 02:30:24;;;;;;;3.33;2.00;;;12.70;53.50;;;;;;5109375;27;47291;-80
2023/09/20 02:32:57;;;;;;;4.60;2.27;;;12.70;53.50;;;;;;5109697;27;45854;-79
2023/09/20 02:35:24;;;;;;;4.03;2.50;;;12.70;53.40;;;;;;5099365;27;45898;-80
2023/09/20 02:37:51;;;;;;;3.53;2.10;;;12.70;53.40;;;;;;5106482;27;46429;-78
2023/09/20 02:40:20;;;;;;;7.47;2.40;;;12.60;53.60;;;;;;5109215;27;46723;-79
2023/09/20 02:42:53;;;;;;;4.63;2.70;;;12.60;53.90;;;;;;5108554;27;46559;-80
2023/09/20 02:45:20;;;;;;;3.73;2.00;;;12.70;54.10;;;;;;5109227;27;46437;-79
2023/09/20 02:47:46;;;;;;;4.47;1.87;;;12.60;54.00;;;;;;5090632;27;46459;-79
2023/09/20 02:50:16;;;;;;;5.20;2.00;;;12.60;54.00;;;;;;5110679;27;46490;-80
2023/09/20 02:52:45;;;;;;;5.87;2.27;;;12.50;53.90;;;;;;5089900;27;46902;-79
2023/09/20 02:55:13;;;;;;;4.27;2.20;;;12.50;53.90;;;;;;5109267;27;46465;-82
2023/09/20 02:57:40;;;;;;;3.20;1.80;;;12.50;53.90;;;;;;5109740;27;46512;-82
2023/09/20 03:00:18;;;;;;;3.03;1.80;;;12.40;53.80;;;;;;5111933;27;47581;-79
2023/09/20 03:02:55;;;;;;;3.37;2.00;;;12.30;53.80;;;;;;5093492;27;46318;-81
2023/09/20 03:05:26;;;;;;;3.80;2.10;;;12.20;53.60;;;;;;5107523;27;46571;-81
2023/09/20 03:07:53;;;;;;;5.10;2.23;;;12.20;53.70;;;;;;5101330;27;46744;-80
2023/09/20 03:10:21;;;;;;;5.43;2.03;;;12.10;53.60;;;;;;5107738;27;47081;-81
2023/09/20 03:12:48;;;;;;;4.50;2.60;;;12.00;53.50;;;;;;5110172;27;46491;-81
2023/09/20 03:15:21;;;;;;;3.30;2.07;;;12.00;53.50;;;;;;5106954;27;46465;-79
2023/09/20 03:18:03;;;;;;;3.10;2.10;;;12.00;53.50;;;;;;5108233;27;46423;-80
2023/09/20 03:20:32;;;;;;;4.77;2.10;;;11.90;53.40;;;;;;5109969;27;47599;-80
2023/09/20 03:22:59;;;;;;;3.30;2.07;;;11.80;54.50;;;;;;5113432;27;46639;-81
2023/09/20 03:25:28;;;;;;;4.57;2.03;;;11.90;53.70;;;;;;5109644;27;46619;-81
2023/09/20 03:27:55;;;;;;;3.40;2.23;;;11.80;53.90;;;;;;5107664;27;46566;-80
2023/09/20 03:30:21;;;;;;;4.83;2.20;;;11.70;54.00;;;;;;5108107;27;46782;-81
2023/09/20 03:32:48;;;;;;;5.30;2.00;;;11.60;54.00;;;;;;5091601;27;46542;-80
2023/09/20 03:35:14;;;;;;;4.90;2.20;;;11.70;54.00;;;;;;5113331;27;46592;-81
2023/09/20 03:37:41;;;;;;;5.07;1.80;;;11.60;53.70;;;;;;5093575;27;46554;-81
2023/09/20 03:40:17;;;;;;;3.53;2.00;;;11.60;53.50;;;;;;5091171;27;48300;-82
2023/09/20 03:42:47;;;;;;;5.10;1.90;;;11.60;53.70;;;;;;5107325;27;46601;-80
2023/09/20 03:45:16;;;;;;;5.10;1.83;;;11.60;53.70;;;;;;5106441;27;46872;-82
2023/09/20 03:47:47;;;;;;;4.33;2.17;;;11.50;53.50;;;;;;5112882;27;46936;-82
2023/09/20 03:50:13;;;;;;;6.57;2.13;;;11.50;53.30;;;;;;5109500;27;47427;-82
2023/09/20 03:52:39;;;;;;;3.57;1.90;;;11.50;53.40;;;;;;5111509;27;46624;-76
2023/09/20 03:55:06;;;;;;;4.10;2.10;;;11.40;53.70;;;;;;5112400;27;45957;-82
2023/09/20 03:57:32;;;;;;;4.77;2.50;;;11.40;53.70;;;;;;5113004;27;46281;-84
2023/09/20 03:59:59;;;;;;;4.30;2.50;;;11.40;53.90;;;;;;5092986;27;48480;-82
2023/09/20 04:02:28;;;;;;;7.73;2.47;;;11.40;54.10;;;;;;5095968;27;46334;-80
2023/09/20 04:04:55;;;;;;;3.10;1.90;;;11.30;53.80;;;;;;5114802;27;46452;-82
2023/09/20 04:07:24;;;;;;;7.07;3.20;;;11.30;53.70;;;;;;5101620;27;46538;-83
2023/09/20 04:09:50;;;;;;;5.30;1.97;;;11.30;53.40;;;;;;5106433;27;48207;-84
2023/09/20 04:12:15;;;;;;;8.40;2.60;;;11.40;53.00;;;;;;5098667;27;46908;-81
2023/09/20 04:14:43;;;;;;;3.77;2.27;;;11.40;52.90;;;;;;5089160;27;46487;-79
2023/09/20 04:17:09;;;;;;;6.00;2.73;;;11.50;53.00;;;;;;5109921;27;46444;-81
2023/09/20 04:19:39;;;;;;;4.00;2.47;;;11.50;53.00;;;;;;5108960;27;45982;-82
2023/09/20 04:22:06;;;;;;;4.37;2.40;;;11.60;53.10;;;;;;5090693;27;47055;-82
2023/09/20 04:24:32;;;;;;;4.73;2.70;;;11.60;53.10;;;;;;5107719;27;45858;-82
2023/09/20 04:26:58;;;;;;;4.57;2.27;;;11.70;53.20;;;;;;5090296;27;46482;-82
2023/09/20 04:29:25;;;;;;;4.60;2.20;;;11.70;53.30;;;;;;5089291;27;48148;-81
2023/09/20 04:31:52;;;;;;;5.87;2.40;;;11.70;53.20;;;;;;5108261;27;46743;-80
2023/09/20 04:34:18;;;;;;;5.43;2.43;;;11.80;53.30;;;;;;5109624;27;47643;-81
2023/09/20 04:36:45;;;;;;;3.97;2.50;;;11.90;53.40;;;;;;5092014;27;46537;-81
2023/09/20 04:39:14;;;;;;;5.33;2.57;;;11.80;53.60;;;;;;5105607;27;48189;-80
2023/09/20 04:41:40;;;;;;;4.20;2.60;;;11.90;53.90;;;;;;5108986;27;46460;-80
2023/09/20 04:44:07;;;;;;;7.80;2.33;;;11.90;53.90;;;;;;5106941;27;46450;-82
2023/09/20 04:46:35;;;;;;;3.60;2.40;;;11.90;54.40;;;;;;5108725;27;46770;-82
2023/09/20 04:49:00;;;;;;;5.80;2.20;;;11.90;54.80;;;;;;5108227;27;46842;-79
2023/09/20 04:51:26;;;;;;;5.77;2.20;;;12.10;55.20;;;;;;5107452;27;46418;-81
2023/09/20 04:53:52;;;;;;;3.17;2.03;;;11.90;55.00;;;;;;5089694;27;45887;-82
2023/09/20 04:56:17;;;;;;;3.93;2.43;;;11.90;55.30;;;;;;5100063;27;46368;-81
2023/09/20 04:58:43;;;;;;;3.67;2.03;;;11.80;55.40;;;;;;5108172;27;46458;-82
2023/09/20 05:01:14;;;;;;;4.20;2.47;;;11.80;55.80;;;;;;5086203;27;46458;-83
2023/09/20 05:03:41;;;;;;;5.23;2.40;;;11.70;56.00;;;;;;5109188;27;46627;-81
2023/09/20 05:06:07;;;;;;;8.03;2.20;;;11.70;56.10;;;;;;5090854;27;46467;-82
2023/09/20 05:08:33;;;;;;;3.23;2.07;;;11.70;56.10;;;;;;5106441;27;46885;-83
2023/09/20 05:10:58;;;;;;;4.47;2.07;;;11.80;56.00;;;;;;5111017;27;46425;-82
2023/09/20 05:13:24;;;;;;;7.60;2.10;;;11.60;55.90;;;;;;5090359;27;46480;-81
2023/09/20 05:15:53;;;;;;;3.57;2.30;;;11.60;56.00;;;;;;5107784;27;46642;-80
2023/09/20 05:18:20;;;;;;;3.23;1.80;;;11.60;56.10;;;;;;5107223;27;47300;-83
2023/09/20 05:20:45;;;;;;;4.17;2.30;;;11.60;56.30;;;;;;5106507;27;46490;-79
2023/09/20 05:23:12;;;;;;;4.17;1.93;;;11.60;56.10;;;;;;5091426;27;46410;-78
2023/09/20 05:25:38;;;;;;;3.40;1.83;;;11.70;56.10;;;;;;5107818;27;46724;-79
2023/09/20 05:28:04;;;;;;;3.43;2.20;;;12.00;56.20;;;;;;5108393;27;46418;-79
2023/09/20 05:30:31;;;;;;;4.37;1.43;;;12.20;56.10;;;;;;5106150;27;46495;-78
2023/09/20 05:32:56;;;;;;;3.73;1.70;;;12.40;56.60;;;;;;5105144;27;46694;-80
2023/09/20 05:35:22;;;;;;;6.13;1.80;;;12.50;56.30;;;;;;5088081;27;46691;-81
2023/09/20 05:37:48;;;;;;;2.97;1.40;;;12.60;55.70;;;;;;5108932;27;47428;-82
2023/09/20 05:40:17;;;;;;;4.50;1.90;;;12.60;55.00;;;;;;5089234;27;46562;-81
2023/09/20 05:42:50;;;;;;;4.40;1.70;;;12.80;54.20;;;;;;5107533;27;46403;-79
2023/09/20 05:45:16;;;;;;;4.70;1.90;;;12.80;54.30;;;;;;5106450;27;46893;-80
2023/09/20 05:47:43;;;;;;;3.83;2.10;;;12.80;54.20;;;;;;5108517;27;47066;-79
2023/09/20 05:50:13;;;;;;;3.10;2.03;;;12.90;53.60;;;;;;5109281;27;47085;-78
2023/09/20 05:52:43;;;;;;;5.40;4.90;;;13.00;53.20;;;;;;5092512;27;46533;-80
2023/09/20 05:55:16;;;;;;;4.57;2.40;;;13.10;54.00;;;;;;5111395;27;46486;-77
2023/09/20 05:57:43;;;;;;;3.37;1.50;;;13.40;54.80;;;;;;5110851;27;47123;-82
2023/09/20 06:00:22;;;;;;;5.77;1.70;;;13.90;54.40;;;;;;5115093;27;46433;-80
2023/09/20 06:02:49;;;;;;;12.00;3.17;;;14.10;52.40;;;;;;5090423;27;46443;-78
2023/09/20 06:05:16;;;;;;;6.40;2.30;;;14.00;51.20;;;;;;5090300;27;46766;-77
2023/09/20 06:07:44;;;;;;;3.20;1.90;;;14.10;51.30;;;;;;5110259;27;46719;-80
2023/09/20 06:10:11;;;;;;;7.43;3.70;;;14.20;50.40;;;;;;5088115;27;46949;-77
2023/09/20 06:12:37;;;;;;;11.50;3.83;;;14.20;50.20;;;;;;5108991;27;46565;-78
2023/09/20 06:15:05;;;;;;;8.43;4.80;;;14.40;50.00;;;;;;5108308;27;46580;-78
2023/09/20 06:17:32;;;;;;;10.30;3.87;;;14.50;49.80;;;;;;5109515;27;47327;-80
2023/09/20 06:19:58;;;;;;;7.80;3.90;;;14.60;49.60;;;;;;5107170;27;46541;-79
2023/09/20 06:22:29;;;;;;;9.00;4.17;;;14.70;49.50;;;;;;5108031;27;46402;-79
2023/09/20 06:24:59;;;;;;;6.10;3.30;;;14.90;49.30;;;;;;5109248;27;46466;-77
2023/09/20 06:27:34;;;;;;;6.57;3.47;;;15.00;49.10;;;;;;5092613;27;48036;-77
2023/09/20 06:30:05;;;;;;;6.20;3.57;;;15.20;49.10;;;;;;5088354;27;46546;-78
2023/09/20 06:32:33;;;;;;;6.27;3.07;;;15.40;49.20;;;;;;5109458;27;46599;-83
2023/09/20 06:35:04;;;;;;;6.03;2.70;;;15.50;49.30;;;;;;5093377;27;46557;-83
2023/09/20 06:37:30;;;;;;;7.33;2.80;;;15.60;49.40;;;;;;5106657;27;47076;-78
2023/09/20 06:39:56;;;;;;;4.90;2.40;;;15.80;49.40;;;;;;5104647;27;46458;-76
2023/09/20 06:42:22;;;;;;;4.47;2.80;;;16.00;49.30;;;;;;5110444;27;46787;-82
2023/09/20 06:44:49;;;;;;;7.47;2.60;;;16.10;49.00;;;;;;5109487;27;46405;-78
2023/09/20 06:47:17;;;;;;;3.60;2.37;;;16.30;48.80;;;;;;5107379;27;46602;-76
2023/09/20 06:49:43;;;;;;;4.57;2.30;;;16.50;48.60;;;;;;5109539;27;46591;-79
2023/09/20 06:52:08;;;;;;;3.83;2.10;;;16.70;48.40;;;;;;5107007;27;46596;-78
2023/09/20 06:54:36;;;;;;;5.73;2.20;;;16.80;48.10;;;;;;5108037;27;46514;-78
2023/09/20 06:57:03;;;;;;;7.03;2.00;;;16.90;47.90;;;;;;5103638;27;46606;-78
2023/09/20 06:59:33;;;;;;;4.07;2.10;;;17.10;47.60;;;;;;5099226;27;46893;-77
2023/09/20 07:02:02;;;;;;;4.70;1.90;;;17.20;47.30;;;;;;5104755;27;46465;-77
2023/09/20 07:04:28;;;;;;;9.93;2.50;;;17.30;47.10;;;;;;5104283;27;46491;-77
2023/09/20 07:06:57;;;;;;;4.57;2.50;;;17.40;47.20;;;;;;5106105;27;46438;-78
2023/09/20 07:09:23;;;;;;;5.67;2.40;;;17.60;47.00;;;;;;5106721;27;46157;-79
2023/09/20 07:11:53;;;;;;;3.93;2.33;;;17.70;46.70;;;;;;5102970;27;47219;-79
2023/09/20 07:14:23;;;;;;;10.40;2.90;;;17.90;46.40;;;;;;5087131;27;46627;-78
2023/09/20 07:16:51;;;;;;;11.33;3.37;;;18.00;45.80;;;;;;5106276;27;46660;-78
2023/09/20 07:19:20;;;;;;;10.80;3.30;;;18.20;46.00;;;;;;5083255;27;46756;-79
2023/09/20 07:21:45;;;;;;;7.50;2.93;;;18.40;45.40;;;;;;5093392;27;46720;-78
2023/09/20 07:24:15;;;;;;;6.60;2.80;;;18.50;44.80;;;;;;5104315;27;46668;-78
2023/09/20 07:26:45;;;;;;;9.00;2.63;;;18.60;44.50;;;;;;5084070;27;48207;-78
2023/09/20 07:29:13;;;;;;;4.20;2.40;;;18.70;44.00;;;;;;5105192;27;46527;-79
2023/09/20 07:31:38;;;;;;;4.90;2.30;;;18.80;43.70;;;;;;5109271;27;46550;-78
2023/09/20 07:34:04;;;;;;;4.30;2.30;;;18.90;43.40;;;;;;5109061;27;46580;-78
2023/09/20 07:36:33;;;;;;;3.47;2.13;;;19.20;43.10;;;;;;5112663;27;46875;-79
2023/09/20 07:39:00;;;;;;;10.63;1.93;;;19.30;42.50;;;;;;5089873;27;46584;-79
2023/09/20 07:41:28;;;;;;;5.73;2.53;;;19.40;42.30;;;;;;5092156;27;46510;-80
2023/09/20 07:43:54;;;;;;;4.33;2.20;;;19.50;41.90;;;;;;5095125;27;46576;-80
2023/09/20 07:46:23;;;;;;;5.40;2.20;;;19.70;41.20;;;;;;5110615;27;46497;-80
2023/09/20 07:48:50;;;;;;;3.40;1.80;;;19.80;40.70;;;;;;5094311;27;46842;-80
2023/09/20 07:51:20;;;;;;;5.80;2.03;;;19.80;40.40;;;;;;5093160;27;46419;-77
2023/09/20 07:53:49;;;;;;;3.80;1.63;;;19.80;40.00;;;;;;5110670;27;46631;-78
2023/09/20 07:56:15;;;;;;;5.13;1.73;;;19.90;39.50;;;;;;5109600;27;46494;-78
2023/09/20 07:58:40;;;;;;;4.40;1.80;;;20.10;38.40;;;;;;5109995;27;46526;-78
2023/09/20 08:01:19;;;;;;;4.90;1.83;;;20.10;37.70;;;;;;5110051;27;46544;-79
2023/09/20 08:03:50;;;;;;;4.20;1.87;;;20.20;37.10;;;;;;5109682;27;45807;-78
2023/09/20 08:06:20;;;;;;;5.00;1.70;;;20.20;36.20;;;;;;5110160;27;47110;-82
2023/09/20 08:08:47;;;;;;;4.87;1.90;;;20.40;35.40;;;;;;5110282;27;46537;-82
2023/09/20 08:11:12;;;;;;;4.37;1.80;;;20.50;34.50;;;;;;5110448;27;46185;-81
2023/09/20 08:13:38;;;;;;;5.40;2.00;;;20.50;34.50;;;;;;5107848;27;46529;-79
2023/09/20 08:16:09;;;;;;;2.90;1.60;;;20.50;34.50;;;;;;5105549;27;46643;-82
2023/09/20 08:21:18;;;;;;;7.37;1.90;;;20.60;33.10;;;;;;5106365;27;46452;-80
2023/09/20 08:59:52;;;;;;;4.00;1.50;;;21.20;27.00;;;;;;5107401;27;46436;-81
2023/09/20 09:02:18;;;;;;;7.53;1.63;;;21.20;26.70;;;;;;5106024;27;46943;-80
2023/09/20 09:04:53;;;;;;;4.97;1.83;;;21.20;26.60;;;;;;5105875;27;46394;-79
2023/09/20 09:07:22;;;;;;;3.90;1.53;;;21.40;26.70;;;;;;5090689;27;46801;-80
2023/09/20 09:09:49;;;;;;;3.77;1.60;;;21.40;26.30;;;;;;5108053;27;46549;-80
2023/09/20 09:12:15;;;;;;;3.43;1.60;;;21.50;25.90;;;;;;5107786;27;46453;-80
2023/09/20 09:14:41;;;;;;;7.70;2.00;;;21.50;25.50;;;;;;5109162;27;46481;-79
2023/09/20 09:17:08;;;;;;;4.03;1.70;;;21.50;25.40;;;;;;5108618;27;45967;-80
2023/09/20 09:19:35;;;;;;;3.30;1.60;;;21.50;25.50;;;;;;5106255;27;46204;-79
2023/09/20 09:22:02;;;;;;;3.87;1.67;;;21.60;25.60;;;;;;5107434;27;46755;-81
2023/09/20 09:24:41;;;;;;;4.10;1.90;;;21.80;25.20;;;;;;5106810;27;46493;-79
2023/09/20 09:27:08;;;;;;;5.03;1.83;;;22.00;25.00;;;;;;5108433;27;46853;-80
2023/09/20 09:29:33;;;;;;;6.00;1.80;;;22.20;24.60;;;;;;5109085;27;46509;-80
2023/09/20 09:32:03;;;;;;;4.53;1.60;;;22.30;24.30;;;;;;5111226;27;46257;-80
2023/09/20 09:34:28;;;;;;;3.80;1.70;;;22.40;24.10;;;;;;5111413;27;46851;-79
2023/09/20 09:36:54;;;;;;;5.27;1.73;;;22.50;24.20;;;;;;5094295;27;46988;-78
2023/09/20 09:39:20;;;;;;;2.97;1.60;;;22.50;24.20;;;;;;5111144;27;47071;-79
2023/09/20 09:41:46;;;;;;;4.57;1.70;;;22.40;24.10;;;;;;5111189;27;46843;-81
2023/09/20 09:44:13;;;;;;;4.23;1.70;;;22.60;23.50;;;;;;5110585;27;46779;-78
2023/09/20 09:46:41;;;;;;;7.00;1.40;;;22.60;22.80;;;;;;5092311;27;46457;-78
2023/09/20 09:49:18;;;;;;;5.40;2.10;;;22.60;22.60;;;;;;5112839;27;46686;-79
2023/09/20 09:51:46;;;;;;;4.23;1.80;;;22.70;22.50;;;;;;5109422;27;46612;-80
2023/09/20 09:54:15;;;;;;;5.53;1.60;;;22.80;22.30;;;;;;5092401;27;46575;-80
2023/09/20 09:56:41;;;;;;;6.60;1.90;;;22.90;21.60;;;;;;5111874;27;46664;-81
2023/09/20 09:59:07;;;;;;;3.00;1.40;;;22.90;21.40;;;;;;5109853;27;46726;-79
2023/09/20 10:01:39;;;;;;;3.20;1.30;;;23.00;21.40;;;;;;5110219;27;46749;-79
2023/09/20 10:04:07;;;;;;;5.80;1.90;;;23.10;21.10;;;;;;5110034;27;46469;-80
2023/09/20 10:06:38;;;;;;;4.07;1.60;;;23.10;20.60;;;;;;5093686;27;46685;-80
2023/09/20 10:09:10;;;;;;;5.67;1.80;;;23.20;20.40;;;;;;5100417;27;48455;-78
2023/09/20 10:11:38;;;;;;;4.20;1.50;;;23.40;20.00;;;;;;5113794;27;46544;-79
2023/09/20 10:14:07;;;;;;;2.50;1.20;;;23.40;19.70;;;;;;5092697;27;46222;-81
2023/09/20 10:16:42;;;;;;;3.60;1.50;;;23.40;19.80;;;;;;5109805;27;46198;-80
2023/09/20 10:19:17;;;;;;;9.50;1.77;;;23.40;19.80;;;;;;5097559;27;48144;-81
2023/09/20 10:22:09;;;;;;;3.73;1.63;;;23.20;19.30;;;;;;5111919;27;46794;-81
2023/09/20 10:24:58;;;;;;;6.97;1.77;;;23.30;19.60;;;;;;5107997;27;46434;-79
2023/09/20 10:27:27;;;;;;;4.13;1.47;;;23.50;19.10;;;;;;5093734;27;46450;-80
2023/09/20 10:30:09;;;;;;;5.00;1.30;;;23.50;19.10;;;;;;5108603;27;47208;-79
2023/09/20 10:32:47;;;;;;;4.20;1.57;;;23.70;18.50;;;;;;5089891;27;47092;-81
2023/09/20 10:35:35;;;;;;;5.63;1.70;;;23.70;18.50;;;;;;5110606;27;45826;-80
2023/09/20 10:38:11;;;;;;;3.17;1.50;;;23.70;18.20;;;;;;5109432;27;46171;-80
2023/09/20 10:40:51;;;;;;;3.13;1.27;;;23.70;18.30;;;;;;5108739;27;47548;-81
2023/09/20 10:43:25;;;;;;;11.70;1.77;;;23.70;18.20;;;;;;5108297;27;46752;-80
2023/09/20 10:45:51;;;;;;;3.00;1.40;;;23.70;18.30;;;;;;5112680;27;46523;-80
2023/09/20 10:48:27;;;;;;;6.37;1.60;;;23.70;18.40;;;;;;5099733;27;46430;-79
2023/09/20 10:50:57;;;;;;;3.43;1.50;;;23.60;17.90;;;;;;5091127;27;48088;-80
2023/09/20 10:53:50;;;;;;;2.60;1.23;;;23.50;17.80;;;;;;5095058;27;46879;-76
2023/09/20 10:56:51;;;;;;;2.63;1.20;;;23.50;17.90;;;;;;5089551;27;46498;-80
2023/09/20 10:59:19;;;;;;;3.80;1.50;;;23.40;18.00;;;;;;5058906;27;46518;-80
2023/09/20 11:01:51;;;;;;;8.40;1.60;;;23.30;17.90;;;;;;5104654;27;46565;-78
2023/09/20 11:04:18;;;;;;;4.47;1.50;;;23.50;17.80;;;;;;5107103;27;46521;-79
2023/09/20 11:06:54;;;;;;;3.20;1.43;;;23.60;17.80;;;;;;5109873;27;46733;-79
2023/09/20 11:09:22;;;;;;;3.80;1.30;;;23.70;17.50;;;;;;5108568;27;46441;-80
2023/09/20 11:11:48;;;;;;;4.40;1.57;;;23.70;17.10;;;;;;5091201;27;48200;-79
2023/09/20 11:14:14;;;;;;;4.57;1.50;;;23.80;17.20;;;;;;5108027;27;46877;-80
2023/09/20 11:16:41;;;;;;;3.60;1.27;;;23.80;17.00;;;;;;5095143;27;46545;-79
2023/09/20 11:19:11;;;;;;;5.00;1.67;;;23.90;17.00;;;;;;5113330;27;46520;-80
2023/09/20 11:21:38;;;;;;;3.70;1.53;;;23.80;16.90;;;;;;5104470;27;48370;-80
2023/09/20 11:24:06;;;;;;;3.63;1.70;;;23.90;16.70;;;;;;5109897;27;46493;-80
2023/09/20 11:26:31;;;;;;;3.73;1.60;;;23.80;16.50;;;;;;5094215;27;46351;-81
2023/09/20 11:28:57;;;;;;;4.00;1.57;;;23.80;16.00;;;;;;5111764;27;46712;-79
2023/09/20 11:31:30;;;;;;;3.90;1.30;;;23.80;16.30;;;;;;5110007;27;46481;-80
2023/09/20 11:34:00;;;;;;;2.50;1.20;;;23.80;16.20;;;;;;5105962;27;46479;-80
2023/09/20 11:36:27;;;;;;;3.33;1.40;;;23.80;16.10;;;;;;5108529;27;46885;-80
2023/09/20 11:38:53;;;;;;;4.73;1.40;;;23.70;15.90;;;;;;5109289;27;46496;-79
2023/09/20 11:41:22;;;;;;;4.67;1.60;;;23.60;16.10;;;;;;5103123;27;46709;-81
2023/09/20 11:43:47;;;;;;;9.20;1.43;;;23.60;16.00;;;;;;5107171;27;46495;-80
2023/09/20 11:46:16;;;;;;;3.30;1.50;;;23.60;16.00;;;;;;5109509;27;46700;-82
2023/09/20 11:48:43;;;;;;;3.40;1.80;;;23.70;16.30;;;;;;5098877;27;46568;-80
2023/09/20 11:51:10;;;;;;;3.60;1.40;;;23.70;16.00;;;;;;5109748;27;46493;-80
2023/09/20 11:53:35;;;;;;;4.30;1.67;;;23.70;16.30;;;;;;5109587;27;46426;-79
2023/09/20 11:56:03;;;;;;;3.10;1.40;;;23.80;16.10;;;;;;5106735;27;46403;-80
2023/09/20 11:58:33;;;;;;;3.00;1.30;;;23.90;16.10;;;;;;5108432;27;46213;-80
2023/09/20 12:01:03;;;;;;;5.73;1.97;;;23.80;15.80;;;;;;5109028;27;47207;-80
2023/09/20 12:03:29;;;;;;;4.17;1.60;;;23.90;16.00;;;;;;5089531;27;46382;-80
2023/09/20 12:05:54;;;;;;;3.70;1.50;;;23.90;15.90;;;;;;5108959;27;46362;-80
2023/09/20 12:08:20;;;;;;;4.30;1.57;;;23.90;16.00;;;;;;5088614;27;46456;-80
2023/09/20 12:10:46;;;;;;;4.90;1.50;;;24.00;15.90;;;;;;5089621;27;48231;-80
2023/09/20 12:13:12;;;;;;;2.70;1.33;;;24.00;15.50;;;;;;5109639;27;47108;-81
2023/09/20 12:15:42;;;;;;;6.57;1.60;;;24.00;15.60;;;;;;5089129;27;46510;-81
2023/09/20 12:18:13;;;;;;;5.70;1.50;;;24.20;15.70;;;;;;5107811;27;46583;-80
2023/09/20 12:20:38;;;;;;;4.23;1.30;;;24.20;15.30;;;;;;5097515;27;47962;-80
2023/09/20 12:23:05;;;;;;;4.47;2.10;;;24.20;15.00;;;;;;5092071;27;46942;-81
2023/09/20 12:25:30;;;;;;;3.63;1.43;;;24.20;15.00;;;;;;5107521;27;46473;-81
2023/09/20 12:27:56;;;;;;;3.27;1.50;;;24.20;15.10;;;;;;5090636;27;46571;-80
2023/09/20 12:30:27;;;;;;;5.47;1.77;;;24.30;14.80;;;;;;5108767;27;46887;-81
2023/09/20 12:32:56;;;;;;;5.77;1.70;;;24.30;14.40;;;;;;5089738;27;46407;-82
2023/09/20 12:35:21;;;;;;;9.20;1.60;;;24.20;14.30;;;;;;5106787;27;46491;-81
2023/09/20 12:37:47;;;;;;;6.93;1.40;;;24.20;14.30;;;;;;5109183;27;45873;-80
2023/09/20 12:40:12;;;;;;;2.93;1.33;;;24.30;14.40;;;;;;5108933;27;46067;-80
2023/09/20 12:42:38;;;;;;;3.60;1.47;;;24.30;14.40;;;;;;5107169;27;46375;-81
2023/09/20 12:45:08;;;;;;;6.20;1.90;;;24.40;14.50;;;;;;5106390;27;46382;-80
2023/09/20 12:47:35;;;;;;;4.83;1.60;;;24.50;14.50;;;;;;5099198;27;45878;-81
2023/09/20 12:50:02;;;;;;;2.93;1.20;;;24.50;14.50;;;;;;5108636;27;47057;-80
2023/09/20 12:52:27;;;;;;;4.23;1.40;;;24.40;14.50;;;;;;5107008;27;46434;-80
2023/09/20 12:54:53;;;;;;;2.80;1.20;;;24.30;14.40;;;;;;5108203;27;46170;-82
2023/09/20 12:57:20;;;;;;;3.30;1.40;;;24.40;14.50;;;;;;5106277;27;46493;-80
2023/09/20 12:59:46;;;;;;;6.83;1.50;;;24.40;15.40;;;;;;5107261;27;46386;-81
2023/09/20 13:02:11;;;;;;;7.43;1.53;;;24.40;14.10;;;;;;5107556;27;46457;-80
2023/09/20 13:04:37;;;;;;;7.70;1.63;;;24.40;13.60;;;;;;5106146;27;46529;-80
2023/09/20 13:07:02;;;;;;;3.77;1.50;;;24.50;14.00;;;;;;5098129;27;46601;-81
2023/09/20 13:09:28;;;;;;;3.80;1.70;;;24.50;13.90;;;;;;5112104;27;46335;-80
2023/09/20 13:11:54;;;;;;;3.53;1.30;;;24.60;13.90;;;;;;5107557;27;46541;-81
2023/09/20 13:14:20;;;;;;;3.27;1.60;;;24.70;13.80;;;;;;5108034;27;46339;-80
2023/09/20 13:16:49;;;;;;;5.50;1.60;;;24.80;13.70;;;;;;5111136;27;46421;-80
2023/09/20 13:19:18;;;;;;;5.43;1.40;;;24.70;13.60;;;;;;5094178;27;47162;-80
2023/09/20 13:21:44;;;;;;;5.77;1.90;;;24.60;13.30;;;;;;5105670;27;46496;-81
2023/09/20 13:24:11;;;;;;;3.77;1.50;;;24.60;13.50;;;;;;5105518;27;46869;-79
2023/09/20 13:26:38;;;;;;;3.63;1.40;;;24.60;13.20;;;;;;5104626;27;46975;-80
2023/09/20 13:29:04;;;;;;;3.50;1.60;;;24.60;13.10;;;;;;5109681;27;46807;-80